Time;durP1;ratioP1;P1;durP2;ratioP2;P2;SDS_P1;SDS_P2;PMS_P1;PMS_P2;Temp;Humidity;BMP_temperature;BMP_pressure;BME280_temperature;BME280_humidity;BME280_pressure;Samples;Min_cycle;Max_cycle;Signal;HPM_P1;HPM_P2
2022/07/29 00:00:55;;;;;;;4.00;3.70;;;21.90;74.10;;;;;;4915848;29;20767;-71
2022/07/29 00:03:21;;;;;;;4.33;3.60;;;22.00;74.00;;;;;;4915333;29;20229;-71
2022/07/29 00:05:46;;;;;;;3.60;3.50;;;22.00;73.20;;;;;;4915356;29;20545;-71
2022/07/29 00:08:12;;;;;;;4.00;3.80;;;22.00;72.60;;;;;;4916294;29;20185;-71
2022/07/29 00:10:38;;;;;;;3.60;3.40;;;22.00;72.30;;;;;;4915387;29;20186;-72
2022/07/29 00:13:04;;;;;;;3.47;3.27;;;21.90;72.30;;;;;;4916331;29;20653;-71
2022/07/29 00:15:29;;;;;;;3.90;3.50;;;21.90;74.20;;;;;;4930913;29;20598;-71
2022/07/29 00:17:55;;;;;;;4.50;3.97;;;21.90;76.80;;;;;;4915558;29;20174;-71
2022/07/29 00:20:21;;;;;;;4.17;3.77;;;21.80;74.70;;;;;;4915333;29;20264;-71
2022/07/29 00:22:47;;;;;;;3.80;3.43;;;21.80;74.20;;;;;;4873658;29;20264;-71
2022/07/29 00:25:13;;;;;;;7.50;3.97;;;21.80;73.70;;;;;;4915270;29;20182;-71
2022/07/29 00:27:39;;;;;;;3.33;2.70;;;21.70;73.20;;;;;;4915913;29;20187;-72
2022/07/29 00:30:06;;;;;;;3.73;3.40;;;21.70;73.50;;;;;;4915452;29;20458;-70
2022/07/29 00:32:31;;;;;;;3.60;3.40;;;21.60;73.70;;;;;;4915685;29;20449;-70
2022/07/29 00:37:41;;;;;;;3.60;3.40;;;21.50;74.50;;;;;;4915769;29;20175;-73
2022/07/29 00:40:08;;;;;;;4.20;3.40;;;21.50;74.60;;;;;;4915185;29;20973;-71
2022/07/29 00:42:44;;;;;;;4.07;3.73;;;21.50;74.10;;;;;;4916107;29;20216;-71
2022/07/29 00:45:11;;;;;;;6.43;3.40;;;21.40;73.90;;;;;;4915618;29;20542;-71
2022/07/29 00:47:36;;;;;;;5.80;3.60;;;21.40;75.10;;;;;;4915975;29;20429;-70
2022/07/29 00:50:05;;;;;;;4.13;3.73;;;21.30;73.90;;;;;;4915221;29;20411;-70
2022/07/29 00:52:31;;;;;;;4.37;4.00;;;21.40;74.70;;;;;;4913943;29;20186;-70
2022/07/29 00:54:57;;;;;;;4.00;3.23;;;21.30;74.20;;;;;;4916431;29;20782;-71
2022/07/29 00:57:24;;;;;;;10.37;3.97;;;21.20;74.60;;;;;;4919890;29;20429;-71
2022/07/29 00:59:50;;;;;;;4.43;4.13;;;21.20;75.10;;;;;;4919030;29;20279;-71
2022/07/29 01:02:16;;;;;;;5.93;4.03;;;21.20;75.00;;;;;;4919678;29;21005;-71
2022/07/29 01:04:42;;;;;;;5.60;4.33;;;21.00;75.70;;;;;;4919708;29;20183;-73
2022/07/29 01:07:07;;;;;;;4.23;3.93;;;21.00;75.30;;;;;;4919258;29;20274;-71
2022/07/29 01:09:35;;;;;;;6.53;4.27;;;21.10;76.50;;;;;;4919424;29;20209;-71
2022/07/29 01:12:02;;;;;;;4.47;4.07;;;21.10;76.20;;;;;;4919190;29;20505;-71
2022/07/29 01:14:28;;;;;;;4.50;4.20;;;21.10;75.60;;;;;;4918164;29;20488;-71
2022/07/29 01:17:11;;;;;;;4.80;4.47;;;21.10;77.10;;;;;;4918689;29;20430;-71
2022/07/29 01:19:58;;;;;;;5.07;4.53;;;21.20;78.20;;;;;;4919321;29;20446;-70
2022/07/29 01:22:42;;;;;;;4.33;3.93;;;21.20;78.50;;;;;;4918436;29;20474;-71
2022/07/29 01:25:45;;;;;;;7.00;5.20;;;21.20;76.40;;;;;;4918648;29;20442;-70
2022/07/29 01:28:36;;;;;;;6.33;4.73;;;21.20;76.00;;;;;;4919060;29;20906;-71
2022/07/29 01:31:03;;;;;;;4.80;4.40;;;21.20;77.30;;;;;;4917692;29;20497;-71
2022/07/29 01:33:50;;;;;;;4.47;4.27;;;21.20;77.50;;;;;;4917452;29;20466;-72
2022/07/29 01:36:33;;;;;;;5.87;5.40;;;21.20;77.10;;;;;;4919209;29;20470;-70
2022/07/29 01:39:18;;;;;;;5.30;4.90;;;21.20;77.40;;;;;;4917990;29;20946;-71
2022/07/29 01:41:56;;;;;;;7.03;5.07;;;21.20;77.60;;;;;;4918855;29;20947;-73
2022/07/29 01:45:10;;;;;;;4.77;4.30;;;21.10;77.00;;;;;;4918784;29;20455;-71
2022/07/29 01:47:57;;;;;;;4.00;3.60;;;21.00;76.80;;;;;;4896881;29;20443;-71
2022/07/29 01:50:31;;;;;;;5.10;4.70;;;21.00;78.50;;;;;;4897871;29;20824;-71
2022/07/29 01:52:59;;;;;;;5.63;5.20;;;20.90;78.20;;;;;;4915723;29;20419;-71
2022/07/29 01:55:30;;;;;;;6.03;5.63;;;20.90;78.70;;;;;;4901120;29;20443;-70
2022/07/29 01:57:58;;;;;;;5.13;4.73;;;20.90;78.80;;;;;;4896771;29;20427;-71
2022/07/29 02:00:25;;;;;;;5.57;5.00;;;20.90;78.80;;;;;;4910769;29;20449;-70
2022/07/29 02:02:54;;;;;;;5.33;4.90;;;20.90;78.60;;;;;;4915467;29;20466;-70
2022/07/29 02:05:22;;;;;;;4.90;4.50;;;20.90;78.50;;;;;;4885921;29;20455;-70
2022/07/29 02:07:50;;;;;;;5.50;5.20;;;20.90;78.40;;;;;;4896104;29;20510;-73
2022/07/29 02:10:20;;;;;;;5.23;4.83;;;21.00;79.20;;;;;;4896171;29;20923;-71
2022/07/29 02:12:47;;;;;;;4.93;4.53;;;20.90;78.60;;;;;;4896263;29;20439;-72
2022/07/29 02:15:14;;;;;;;5.20;4.70;;;20.80;78.70;;;;;;4896878;29;20467;-71
2022/07/29 02:18:05;;;;;;;4.80;4.50;;;20.90;79.10;;;;;;4898133;29;20434;-71
2022/07/29 02:20:32;;;;;;;9.67;5.50;;;20.90;80.50;;;;;;4893897;29;20931;-71
2022/07/29 02:23:00;;;;;;;5.33;5.00;;;20.90;81.50;;;;;;4898636;29;20470;-71
2022/07/29 02:25:27;;;;;;;5.60;5.13;;;20.90;82.20;;;;;;4916366;29;20443;-70
2022/07/29 02:27:54;;;;;;;4.60;4.30;;;20.90;83.10;;;;;;4917555;29;20429;-71
2022/07/29 02:30:22;;;;;;;6.30;4.50;;;20.90;83.40;;;;;;4917530;29;20454;-71
2022/07/29 02:32:49;;;;;;;6.23;4.00;;;20.90;82.50;;;;;;4917468;29;20422;-73
2022/07/29 02:35:16;;;;;;;4.60;4.20;;;20.80;80.90;;;;;;4918108;29;20445;-71
2022/07/29 02:38:49;;;;;;;4.30;3.90;;;20.60;80.50;;;;;;4918110;29;20406;-71
2022/07/29 02:40:35;;;;;;;3.93;3.53;;;20.40;80.90;;;;;;4915392;29;20478;-71
2022/07/29 02:43:05;;;;;;;5.10;4.60;;;20.20;81.60;;;;;;4916855;29;20569;-70
2022/07/29 02:45:32;;;;;;;4.53;4.13;;;20.10;82.10;;;;;;4917957;29;20442;-71
2022/07/29 02:48:04;;;;;;;6.50;4.27;;;20.10;82.30;;;;;;4916853;29;20415;-71
2022/07/29 02:50:34;;;;;;;4.27;3.67;;;20.00;82.90;;;;;;4917071;29;20439;-71
2022/07/29 02:53:17;;;;;;;4.40;4.00;;;20.00;84.10;;;;;;4899281;29;20463;-71
2022/07/29 02:55:51;;;;;;;6.17;4.37;;;20.10;84.00;;;;;;4917321;29;20430;-71
2022/07/29 02:58:32;;;;;;;5.13;3.97;;;20.10;84.20;;;;;;4917474;29;20918;-72
2022/07/29 03:01:02;;;;;;;4.53;4.13;;;20.20;86.00;;;;;;4916776;29;20488;-72
2022/07/29 03:03:32;;;;;;;5.17;4.67;;;20.20;85.70;;;;;;4917541;29;20873;-72
2022/07/29 03:06:00;;;;;;;6.13;5.33;;;20.20;83.50;;;;;;4916128;29;20462;-72
2022/07/29 03:08:28;;;;;;;4.90;4.50;;;20.20;83.50;;;;;;4917284;29;20430;-72
2022/07/29 03:10:54;;;;;;;5.27;4.87;;;20.10;83.30;;;;;;4914267;29;20442;-72
2022/07/29 03:13:21;;;;;;;6.77;5.13;;;20.10;83.90;;;;;;4917417;29;20450;-72
2022/07/29 03:15:47;;;;;;;7.20;4.53;;;20.10;83.90;;;;;;4917077;29;20488;-72
2022/07/29 03:18:14;;;;;;;4.87;4.53;;;20.10;84.60;;;;;;4916353;29;20513;-72
2022/07/29 03:20:40;;;;;;;5.83;5.23;;;20.10;85.40;;;;;;4917411;29;20762;-72
2022/07/29 03:23:07;;;;;;;5.30;4.80;;;20.20;86.40;;;;;;4915729;29;20467;-72
2022/07/29 03:25:33;;;;;;;5.63;5.07;;;20.20;87.00;;;;;;4917201;29;20411;-72
2022/07/29 03:27:59;;;;;;;4.80;4.47;;;20.30;86.90;;;;;;4915104;29;20422;-73
2022/07/29 03:30:25;;;;;;;5.20;4.77;;;20.30;86.10;;;;;;4917002;29;20214;-72
2022/07/29 03:32:51;;;;;;;6.83;4.80;;;20.40;86.00;;;;;;4916789;29;20185;-74
2022/07/29 03:35:17;;;;;;;6.40;4.53;;;20.40;85.30;;;;;;4915776;29;20414;-72
2022/07/29 03:37:44;;;;;;;4.47;4.17;;;20.40;84.50;;;;;;4917015;29;20422;-72
2022/07/29 03:40:17;;;;;;;5.07;4.67;;;20.40;84.10;;;;;;4914975;29;20241;-72
2022/07/29 03:42:44;;;;;;;8.20;4.83;;;20.30;84.30;;;;;;4917042;29;20877;-72
2022/07/29 03:45:17;;;;;;;4.90;4.50;;;20.30;84.40;;;;;;4915756;29;20545;-72
2022/07/29 03:47:56;;;;;;;5.07;4.67;;;20.30;84.80;;;;;;4917184;29;20790;-72
2022/07/29 03:50:23;;;;;;;11.60;4.77;;;20.30;87.60;;;;;;4916820;29;20410;-72
2022/07/29 03:52:49;;;;;;;5.40;4.90;;;20.30;87.50;;;;;;4916744;29;20421;-72
2022/07/29 03:55:15;;;;;;;4.83;4.23;;;20.40;88.70;;;;;;4915957;29;20914;-72
2022/07/29 03:57:42;;;;;;;4.50;4.10;;;20.40;86.90;;;;;;4916082;29;20445;-72
2022/07/29 04:00:09;;;;;;;6.23;5.90;;;20.40;86.30;;;;;;4915842;29;20846;-72
2022/07/29 04:02:38;;;;;;;5.33;4.90;;;20.40;85.70;;;;;;4916612;29;20461;-72
2022/07/29 04:05:04;;;;;;;4.30;3.77;;;20.40;85.50;;;;;;4914510;29;20448;-72
2022/07/29 04:07:30;;;;;;;6.33;3.83;;;20.40;85.50;;;;;;4916535;29;20887;-72
2022/07/29 04:09:56;;;;;;;4.43;4.13;;;20.30;86.50;;;;;;4914604;29;20419;-73
2022/07/29 04:12:22;;;;;;;5.37;4.30;;;20.40;86.90;;;;;;4915018;29;20216;-73
2022/07/29 04:14:48;;;;;;;6.87;6.27;;;20.40;86.80;;;;;;4916205;29;20234;-72
2022/07/29 04:17:14;;;;;;;3.97;3.60;;;20.50;87.00;;;;;;4915566;29;20426;-73
2022/07/29 04:19:40;;;;;;;8.60;8.10;;;20.50;88.40;;;;;;4916367;29;20766;-73
2022/07/29 04:22:05;;;;;;;6.33;5.83;;;20.50;88.90;;;;;;4915503;29;20698;-73
2022/07/29 04:24:31;;;;;;;4.37;3.97;;;20.50;89.00;;;;;;4915356;29;20186;-72
2022/07/29 04:26:59;;;;;;;8.00;7.33;;;20.60;89.60;;;;;;4915456;29;20270;-73
2022/07/29 04:29:25;;;;;;;4.43;4.10;;;20.60;88.70;;;;;;4914811;29;20186;-72
2022/07/29 04:31:51;;;;;;;4.30;3.90;;;20.60;89.20;;;;;;4914911;29;20941;-73
2022/07/29 04:34:17;;;;;;;9.40;8.70;;;20.60;89.40;;;;;;4914386;29;20435;-72
2022/07/29 04:36:42;;;;;;;4.60;4.20;;;20.60;89.20;;;;;;4915856;29;20261;-72
2022/07/29 04:39:08;;;;;;;8.10;7.53;;;20.50;90.00;;;;;;4915365;29;20261;-73
2022/07/29 04:41:34;;;;;;;4.43;4.03;;;20.60;90.20;;;;;;4914784;29;20218;-72
2022/07/29 04:44:04;;;;;;;7.40;7.00;;;20.60;89.30;;;;;;4915246;29;20190;-73
2022/07/29 04:46:30;;;;;;;6.27;5.00;;;20.60;89.50;;;;;;4916232;29;20171;-72
2022/07/29 04:48:56;;;;;;;5.20;3.97;;;20.60;88.90;;;;;;4915547;29;20426;-73
2022/07/29 04:51:21;;;;;;;4.30;3.80;;;20.60;88.60;;;;;;4915478;29;20174;-72
2022/07/29 04:53:47;;;;;;;6.30;5.80;;;20.60;88.60;;;;;;4915389;29;20611;-72
2022/07/29 04:56:13;;;;;;;5.17;4.50;;;20.60;89.80;;;;;;4915196;29;20616;-72
2022/07/29 04:58:39;;;;;;;4.37;4.07;;;20.60;89.80;;;;;;4915897;29;20181;-72
2022/07/29 05:01:05;;;;;;;5.03;4.53;;;20.60;90.20;;;;;;4911293;29;20187;-72
2022/07/29 05:03:30;;;;;;;6.10;5.07;;;20.60;88.10;;;;;;4915833;29;20458;-72
2022/07/29 05:05:56;;;;;;;5.30;4.90;;;20.60;89.30;;;;;;4896848;29;20202;-73
2022/07/29 05:08:22;;;;;;;6.03;5.53;;;20.60;88.10;;;;;;4896865;29;20172;-72
2022/07/29 05:10:47;;;;;;;7.13;6.70;;;20.60;87.90;;;;;;4907836;29;20194;-73
2022/07/29 05:13:13;;;;;;;4.10;3.70;;;20.60;89.10;;;;;;4914090;29;20197;-72
2022/07/29 05:15:41;;;;;;;4.07;3.67;;;20.60;89.20;;;;;;4915948;29;20222;-73
2022/07/29 05:18:07;;;;;;;4.87;3.80;;;20.60;88.50;;;;;;4913038;29;20218;-72
2022/07/29 05:20:34;;;;;;;6.90;6.50;;;20.60;88.50;;;;;;4915839;29;20469;-72
2022/07/29 05:23:00;;;;;;;4.23;3.37;;;20.60;87.00;;;;;;4914574;29;20202;-73
2022/07/29 05:25:28;;;;;;;4.10;3.80;;;20.60;88.90;;;;;;4915741;29;20435;-72
2022/07/29 05:27:54;;;;;;;3.53;3.23;;;20.70;88.20;;;;;;4914686;29;20467;-72
2022/07/29 05:30:21;;;;;;;5.73;3.80;;;20.60;88.30;;;;;;4914151;29;20451;-72
2022/07/29 05:32:47;;;;;;;4.47;3.93;;;20.60;88.30;;;;;;4908662;29;20435;-72
2022/07/29 05:35:14;;;;;;;5.20;4.80;;;20.60;87.70;;;;;;4895975;29;20415;-72
2022/07/29 05:37:40;;;;;;;5.03;4.50;;;20.60;88.50;;;;;;4910316;29;20194;-72
2022/07/29 05:40:06;;;;;;;4.60;4.20;;;20.60;88.70;;;;;;4914689;29;20516;-72
2022/07/29 05:42:32;;;;;;;6.70;6.20;;;20.60;89.10;;;;;;4917150;29;20477;-73
2022/07/29 05:44:58;;;;;;;5.10;4.80;;;20.60;89.80;;;;;;4918904;29;20434;-74
2022/07/29 05:47:24;;;;;;;5.13;4.67;;;20.60;90.00;;;;;;4918479;29;20541;-72
2022/07/29 05:49:50;;;;;;;9.23;5.27;;;20.60;90.00;;;;;;4919076;29;20298;-71
2022/07/29 05:52:16;;;;;;;4.50;4.10;;;20.60;90.20;;;;;;4917880;29;20430;-72
2022/07/29 05:54:42;;;;;;;5.37;4.80;;;20.60;90.10;;;;;;4918495;29;20531;-72
2022/07/29 05:57:08;;;;;;;5.13;4.70;;;20.60;90.20;;;;;;4918072;29;20427;-72
2022/07/29 05:59:37;;;;;;;5.30;4.90;;;20.60;90.80;;;;;;4918380;29;20197;-72
2022/07/29 06:02:04;;;;;;;5.27;4.87;;;20.60;90.40;;;;;;4915559;29;20938;-73
2022/07/29 06:04:31;;;;;;;6.90;4.47;;;20.50;89.80;;;;;;4912794;29;20521;-72
2022/07/29 06:06:57;;;;;;;4.60;4.20;;;20.50;90.60;;;;;;4918066;29;20498;-72
2022/07/29 06:09:23;;;;;;;4.80;4.40;;;20.50;90.90;;;;;;4918075;29;20415;-72
2022/07/29 06:11:48;;;;;;;4.27;3.97;;;20.50;90.80;;;;;;4916260;29;20189;-72
2022/07/29 06:14:14;;;;;;;6.80;4.90;;;20.50;90.80;;;;;;4913947;29;20478;-72
2022/07/29 06:16:40;;;;;;;5.10;4.60;;;20.50;91.00;;;;;;4918239;29;20186;-72
2022/07/29 06:19:06;;;;;;;5.30;4.90;;;20.50;90.90;;;;;;4917087;29;20453;-72
2022/07/29 06:21:32;;;;;;;7.03;4.80;;;20.60;89.90;;;;;;4910008;29;20195;-73
2022/07/29 06:23:57;;;;;;;4.47;4.10;;;20.50;89.20;;;;;;4906206;29;20847;-71
2022/07/29 06:26:23;;;;;;;7.00;4.20;;;20.50;91.80;;;;;;4917798;29;20213;-72
2022/07/29 06:28:49;;;;;;;6.43;6.03;;;20.50;91.40;;;;;;4917763;29;20187;-71
2022/07/29 06:31:15;;;;;;;7.33;5.43;;;20.50;91.30;;;;;;4917066;29;20273;-71
2022/07/29 06:33:40;;;;;;;7.33;5.23;;;20.60;91.00;;;;;;4918454;29;20179;-71
2022/07/29 06:36:06;;;;;;;5.03;4.53;;;20.60;91.90;;;;;;4917210;29;20214;-73
2022/07/29 06:38:33;;;;;;;6.30;4.20;;;20.60;90.50;;;;;;4917268;29;20188;-73
2022/07/29 06:41:10;;;;;;;4.90;4.13;;;20.40;89.70;;;;;;4918539;29;20443;-70
2022/07/29 06:43:38;;;;;;;4.40;4.10;;;20.10;90.70;;;;;;4918295;29;20477;-70
2022/07/29 06:46:06;;;;;;;5.10;4.70;;;20.00;91.30;;;;;;4916595;29;20447;-69
2022/07/29 06:48:33;;;;;;;4.97;4.33;;;20.10;90.70;;;;;;4915024;29;20820;-69
2022/07/29 06:51:00;;;;;;;5.00;3.73;;;20.10;91.10;;;;;;4868632;29;20513;-70
2022/07/29 06:53:26;;;;;;;4.00;3.70;;;20.10;90.50;;;;;;4914428;29;20452;-70
2022/07/29 06:55:52;;;;;;;5.57;4.37;;;20.20;90.60;;;;;;4917522;29;20438;-71
2022/07/29 06:58:20;;;;;;;5.73;5.43;;;20.30;90.80;;;;;;4916431;29;20450;-71
2022/07/29 07:00:47;;;;;;;8.00;4.33;;;20.30;90.70;;;;;;4917437;29;20465;-70
2022/07/29 07:03:13;;;;;;;4.73;4.23;;;20.30;89.70;;;;;;4917378;29;20469;-70
2022/07/29 07:05:39;;;;;;;3.60;3.40;;;20.20;90.20;;;;;;4918057;29;20517;-70
2022/07/29 07:08:05;;;;;;;4.63;4.23;;;20.30;90.40;;;;;;4916144;29;20835;-70
2022/07/29 07:10:32;;;;;;;6.00;4.83;;;20.30;90.00;;;;;;4917589;29;20193;-70
2022/07/29 07:12:57;;;;;;;6.67;6.20;;;20.40;90.00;;;;;;4912960;29;20454;-71
2022/07/29 07:15:23;;;;;;;5.70;5.10;;;20.40;90.40;;;;;;4916342;29;20918;-70
2022/07/29 07:17:49;;;;;;;5.50;4.90;;;20.50;90.30;;;;;;4917480;29;20190;-70
2022/07/29 07:20:16;;;;;;;5.77;5.30;;;20.60;90.30;;;;;;4916096;29;20205;-70
2022/07/29 07:22:42;;;;;;;5.90;4.67;;;20.50;89.60;;;;;;4913010;29;21037;-73
2022/07/29 07:25:08;;;;;;;7.00;5.97;;;20.60;90.40;;;;;;4916134;29;20534;-70
2022/07/29 07:27:36;;;;;;;5.83;5.23;;;20.60;90.60;;;;;;4916225;29;20273;-70
2022/07/29 07:30:07;;;;;;;7.00;6.40;;;20.70;90.00;;;;;;4900889;29;20511;-70
2022/07/29 07:32:33;;;;;;;4.43;4.03;;;20.80;90.40;;;;;;4913383;29;20517;-70
2022/07/29 07:34:59;;;;;;;5.00;4.60;;;20.80;90.00;;;;;;4917522;29;20423;-70
2022/07/29 07:37:26;;;;;;;5.37;4.53;;;20.90;90.00;;;;;;4916482;29;20438;-70
2022/07/29 07:39:52;;;;;;;4.63;3.80;;;20.90;90.20;;;;;;4917422;29;20419;-70
2022/07/29 07:42:19;;;;;;;4.97;4.63;;;21.00;90.30;;;;;;4915261;29;20530;-70
2022/07/29 07:44:48;;;;;;;4.90;4.60;;;21.00;87.70;;;;;;4917283;29;20547;-70
2022/07/29 07:47:14;;;;;;;4.87;4.00;;;21.10;88.60;;;;;;4915241;29;20441;-70
2022/07/29 07:49:40;;;;;;;4.23;3.83;;;21.10;89.80;;;;;;4904159;29;20915;-70
2022/07/29 07:52:06;;;;;;;4.40;4.00;;;21.20;89.70;;;;;;4916610;29;20425;-71
2022/07/29 07:54:31;;;;;;;4.43;4.13;;;21.20;90.40;;;;;;4912126;29;20191;-70
2022/07/29 07:56:57;;;;;;;4.90;4.03;;;21.30;90.50;;;;;;4906499;29;20655;-70
2022/07/29 07:59:23;;;;;;;4.57;4.27;;;21.30;90.10;;;;;;4914556;29;20309;-72
2022/07/29 08:01:49;;;;;;;4.67;4.23;;;21.40;90.70;;;;;;4915310;29;20668;-72
2022/07/29 08:04:15;;;;;;;8.10;7.50;;;21.50;90.80;;;;;;4914815;29;20442;-72
2022/07/29 08:06:41;;;;;;;5.70;5.20;;;21.60;90.50;;;;;;4916689;29;20418;-72
2022/07/29 08:09:07;;;;;;;5.47;5.20;;;21.80;90.50;;;;;;4913669;29;20444;-72
2022/07/29 08:11:33;;;;;;;4.27;3.90;;;21.90;89.60;;;;;;4916048;29;20802;-70
2022/07/29 08:14:01;;;;;;;7.27;6.10;;;22.00;87.20;;;;;;4916739;29;20301;-70
2022/07/29 08:16:27;;;;;;;5.50;4.33;;;22.10;87.10;;;;;;4916107;29;20202;-70
2022/07/29 08:18:56;;;;;;;5.03;4.67;;;22.20;86.10;;;;;;4916363;29;20466;-70
2022/07/29 08:21:24;;;;;;;9.40;4.10;;;22.30;85.90;;;;;;4912790;29;20466;-73
2022/07/29 08:23:52;;;;;;;6.20;3.90;;;22.40;87.00;;;;;;4914746;29;20441;-70
2022/07/29 08:26:19;;;;;;;4.77;4.57;;;22.60;83.50;;;;;;4907925;29;20795;-70
2022/07/29 08:28:48;;;;;;;4.30;3.90;;;22.70;84.50;;;;;;4907406;29;20447;-70
2022/07/29 08:31:14;;;;;;;5.20;4.80;;;22.80;82.60;;;;;;4915193;29;20438;-70
2022/07/29 08:33:40;;;;;;;4.00;3.63;;;22.90;83.20;;;;;;4914672;29;21047;-70
2022/07/29 08:36:07;;;;;;;5.10;4.60;;;23.00;85.00;;;;;;4916068;29;20442;-70
2022/07/29 08:38:36;;;;;;;4.80;4.40;;;23.00;85.00;;;;;;4914406;29;20446;-72
2022/07/29 08:41:02;;;;;;;6.10;5.70;;;23.10;85.30;;;;;;4914998;29;20466;-71
2022/07/29 08:43:30;;;;;;;5.47;5.00;;;23.10;83.60;;;;;;4909989;29;20544;-71
2022/07/29 08:45:56;;;;;;;6.47;5.73;;;23.20;85.00;;;;;;4914897;29;20218;-72
2022/07/29 08:48:24;;;;;;;5.03;4.30;;;23.20;85.60;;;;;;4914615;29;20465;-72
2022/07/29 08:50:55;;;;;;;6.03;4.40;;;23.20;85.10;;;;;;4931299;29;20209;-71
2022/07/29 08:53:23;;;;;;;5.97;4.27;;;23.20;84.10;;;;;;4910686;29;20441;-70
2022/07/29 08:55:49;;;;;;;4.60;3.57;;;23.20;86.30;;;;;;4915348;29;20438;-70
2022/07/29 08:58:17;;;;;;;5.50;5.00;;;23.30;86.20;;;;;;4905236;29;20430;-70
2022/07/29 09:00:52;;;;;;;4.53;4.23;;;23.30;85.90;;;;;;4915290;29;20889;-70
2022/07/29 09:03:20;;;;;;;10.03;4.73;;;23.30;84.50;;;;;;4914847;29;20484;-73
2022/07/29 09:05:46;;;;;;;4.60;4.30;;;23.30;80.90;;;;;;4915702;29;20442;-71
2022/07/29 09:08:17;;;;;;;4.50;4.20;;;23.30;83.00;;;;;;4912362;29;20450;-69
2022/07/29 09:10:43;;;;;;;9.10;6.10;;;23.30;83.50;;;;;;4914823;29;20435;-69
2022/07/29 09:13:09;;;;;;;4.60;3.50;;;23.40;84.00;;;;;;4913870;29;20448;-71
2022/07/29 09:15:35;;;;;;;6.37;5.93;;;23.40;84.90;;;;;;4917045;29;20470;-69
2022/07/29 09:18:02;;;;;;;5.50;4.03;;;23.40;85.00;;;;;;4916905;29;20506;-69
2022/07/29 09:23:13;;;;;;;21.13;5.73;;;23.30;85.50;;;;;;4918461;29;20469;-69
2022/07/29 09:25:40;;;;;;;4.20;3.80;;;23.30;85.20;;;;;;4911991;29;20774;-69
2022/07/29 09:28:14;;;;;;;4.30;3.90;;;23.30;85.90;;;;;;4909160;29;20438;-69
2022/07/29 09:31:00;;;;;;;5.73;5.00;;;23.30;86.80;;;;;;4919367;29;20423;-69
2022/07/29 09:33:35;;;;;;;5.63;4.83;;;23.50;88.30;;;;;;4919140;29;20895;-69
2022/07/29 09:36:06;;;;;;;6.40;6.00;;;23.60;86.30;;;;;;4917723;29;20434;-69
2022/07/29 09:38:33;;;;;;;6.83;4.37;;;23.60;86.00;;;;;;4918483;29;20925;-68
2022/07/29 09:41:00;;;;;;;6.77;6.20;;;23.70;85.50;;;;;;4919135;29;20434;-68
2022/07/29 09:43:26;;;;;;;5.53;4.40;;;23.70;86.60;;;;;;4918500;29;20477;-68
2022/07/29 09:45:52;;;;;;;6.40;5.80;;;23.70;87.50;;;;;;4919356;29;20469;-68
2022/07/29 09:48:20;;;;;;;4.57;4.27;;;23.80;83.80;;;;;;4917175;29;20648;-68
2022/07/29 09:50:49;;;;;;;6.80;6.20;;;23.80;84.80;;;;;;4919308;29;20261;-68
2022/07/29 09:53:31;;;;;;;4.60;4.30;;;23.80;83.10;;;;;;4918618;29;20438;-68
2022/07/29 09:55:56;;;;;;;4.70;4.40;;;23.80;82.40;;;;;;4919657;29;20411;-68
2022/07/29 09:58:22;;;;;;;4.90;4.57;;;23.80;82.00;;;;;;4918597;29;20433;-68
2022/07/29 10:00:50;;;;;;;5.10;4.70;;;23.80;83.00;;;;;;4919191;29;20213;-68
2022/07/29 10:03:16;;;;;;;8.10;5.20;;;23.70;82.30;;;;;;4918503;29;20542;-68
2022/07/29 10:05:43;;;;;;;4.53;4.20;;;23.80;81.70;;;;;;4933702;29;20907;-68
2022/07/29 10:08:09;;;;;;;4.30;3.90;;;23.70;83.30;;;;;;4918744;29;20430;-68
2022/07/29 10:10:41;;;;;;;4.63;4.33;;;23.70;83.70;;;;;;4918390;29;20462;-67
2022/07/29 10:13:14;;;;;;;6.43;4.37;;;23.60;85.30;;;;;;4918892;29;20430;-67
2022/07/29 10:15:43;;;;;;;4.90;4.60;;;23.60;86.30;;;;;;4919025;29;20466;-67
2022/07/29 10:18:11;;;;;;;5.50;5.00;;;23.60;86.10;;;;;;4918184;29;20434;-67
2022/07/29 10:20:40;;;;;;;5.07;4.67;;;23.50;88.00;;;;;;4918774;29;20426;-67
2022/07/29 10:23:05;;;;;;;6.67;5.10;;;23.50;88.60;;;;;;4918698;29;20457;-66
2022/07/29 10:25:32;;;;;;;6.77;4.37;;;23.40;88.40;;;;;;4918139;29;20493;-67
2022/07/29 10:27:57;;;;;;;6.80;6.20;;;23.30;88.90;;;;;;4917717;29;20183;-67
2022/07/29 10:30:25;;;;;;;5.50;5.10;;;23.20;89.90;;;;;;4917983;29;20537;-67
2022/07/29 10:33:12;;;;;;;5.57;5.00;;;23.20;90.20;;;;;;4918642;29;20555;-66
2022/07/29 10:35:49;;;;;;;5.90;5.30;;;23.20;90.10;;;;;;4918038;29;20450;-66
2022/07/29 10:38:30;;;;;;;6.00;5.47;;;23.20;90.20;;;;;;4917952;29;20421;-69
2022/07/29 10:41:26;;;;;;;6.83;5.90;;;23.10;90.60;;;;;;4918424;29;20405;-67
2022/07/29 10:44:05;;;;;;;6.10;5.60;;;23.10;91.00;;;;;;4918576;29;20434;-67
2022/07/29 10:46:38;;;;;;;6.10;5.60;;;23.00;90.20;;;;;;4918168;29;20457;-66
2022/07/29 10:49:08;;;;;;;6.00;5.60;;;22.90;90.50;;;;;;4917407;29;20533;-67
2022/07/29 10:51:54;;;;;;;10.73;5.90;;;22.90;90.60;;;;;;4917666;29;20514;-66
2022/07/29 10:54:35;;;;;;;6.60;5.90;;;22.90;91.70;;;;;;4917677;29;20797;-67
2022/07/29 10:57:17;;;;;;;6.23;5.63;;;22.90;91.00;;;;;;4918118;29;20423;-67
2022/07/29 11:00:12;;;;;;;6.60;5.37;;;22.90;90.80;;;;;;4917063;29;20418;-67
2022/07/29 11:02:42;;;;;;;6.00;5.13;;;22.90;92.10;;;;;;4908798;29;20470;-66
2022/07/29 11:05:09;;;;;;;7.73;5.57;;;22.90;90.80;;;;;;4917788;29;20793;-67
2022/07/29 11:07:37;;;;;;;6.27;5.50;;;22.90;90.70;;;;;;4917437;29;20426;-67
2022/07/29 11:10:15;;;;;;;6.27;5.63;;;22.90;90.70;;;;;;4917960;29;20429;-67
2022/07/29 11:12:40;;;;;;;5.80;5.37;;;23.00;91.20;;;;;;4917246;29;20430;-67
2022/07/29 11:15:08;;;;;;;5.70;5.30;;;23.10;91.70;;;;;;4917254;29;20984;-67
2022/07/29 11:17:56;;;;;;;6.50;5.60;;;23.20;91.50;;;;;;4916385;29;20198;-66
2022/07/29 11:20:44;;;;;;;6.60;6.10;;;23.30;92.20;;;;;;4916379;29;20418;-67
2022/07/29 11:23:35;;;;;;;7.40;5.97;;;23.40;91.50;;;;;;4917612;29;20457;-67
2022/07/29 11:26:21;;;;;;;6.63;6.10;;;23.50;91.30;;;;;;4917017;29;20418;-67
2022/07/29 11:28:53;;;;;;;7.77;5.57;;;23.70;91.70;;;;;;4914620;29;20594;-67
2022/07/29 11:31:36;;;;;;;7.17;6.43;;;23.80;90.50;;;;;;4916988;29;20481;-67
2022/07/29 11:34:20;;;;;;;6.70;6.17;;;23.80;91.30;;;;;;4916115;29;20425;-67
2022/07/29 11:39:34;;;;;;;6.23;5.83;;;24.10;90.60;;;;;;4916617;29;20446;-67
2022/07/29 11:42:25;;;;;;;6.70;6.17;;;24.20;90.80;;;;;;4916998;29;21037;-67
2022/07/29 11:44:56;;;;;;;8.93;6.53;;;24.40;90.90;;;;;;4916945;29;20797;-67
2022/07/29 11:47:22;;;;;;;7.00;6.40;;;24.40;90.30;;;;;;4916695;29;20426;-67
2022/07/29 11:49:50;;;;;;;8.20;6.73;;;24.50;89.90;;;;;;4916911;29;20423;-67
2022/07/29 11:52:17;;;;;;;7.47;6.63;;;24.50;90.80;;;;;;4917126;29;20419;-67
2022/07/29 11:54:43;;;;;;;6.87;6.27;;;24.60;90.10;;;;;;4916559;29;20421;-67
2022/07/29 11:57:09;;;;;;;8.33;6.30;;;24.60;90.90;;;;;;4916127;29;20805;-67
2022/07/29 11:59:42;;;;;;;7.17;6.53;;;24.60;90.80;;;;;;4916508;29;20437;-67
2022/07/29 12:02:09;;;;;;;8.20;6.70;;;24.60;89.90;;;;;;4883475;29;20474;-66
2022/07/29 12:04:54;;;;;;;6.87;5.60;;;24.60;89.00;;;;;;4916064;29;20936;-67
2022/07/29 12:07:31;;;;;;;6.10;5.60;;;24.50;90.00;;;;;;4916380;29;20399;-69
2022/07/29 12:09:56;;;;;;;5.93;5.37;;;24.40;89.30;;;;;;4916948;29;20406;-67
2022/07/29 12:12:22;;;;;;;6.30;5.70;;;24.40;89.10;;;;;;4915036;29;20517;-67
2022/07/29 12:14:48;;;;;;;5.97;5.57;;;24.40;88.30;;;;;;4916726;29;20225;-67
2022/07/29 12:17:34;;;;;;;5.77;5.37;;;24.40;88.80;;;;;;4916694;29;20178;-68
2022/07/29 12:20:02;;;;;;;6.40;5.93;;;24.30;88.40;;;;;;4917004;29;20402;-68
2022/07/29 12:22:37;;;;;;;5.80;5.27;;;24.30;89.80;;;;;;4916034;29;20465;-69
2022/07/29 12:25:09;;;;;;;6.43;5.83;;;24.30;90.40;;;;;;4916993;29;20422;-69
2022/07/29 12:27:36;;;;;;;6.57;6.07;;;24.20;90.30;;;;;;4914201;29;20590;-68
2022/07/29 12:30:07;;;;;;;5.13;4.83;;;24.20;89.50;;;;;;4916779;29;20501;-69
2022/07/29 12:32:35;;;;;;;6.67;6.23;;;24.20;90.10;;;;;;4916006;29;20503;-69
2022/07/29 12:35:07;;;;;;;6.77;6.27;;;24.10;90.50;;;;;;4883157;29;20507;-68
2022/07/29 12:37:38;;;;;;;6.07;5.47;;;24.10;91.10;;;;;;4914166;29;20950;-69
2022/07/29 12:40:05;;;;;;;4.90;4.50;;;24.10;90.70;;;;;;4915937;29;20520;-68
2022/07/29 12:42:35;;;;;;;5.40;5.00;;;24.10;91.40;;;;;;4913742;29;20581;-69
2022/07/29 12:45:02;;;;;;;6.80;5.73;;;24.20;90.40;;;;;;4914982;29;20525;-69
2022/07/29 12:47:30;;;;;;;5.57;5.07;;;24.20;89.50;;;;;;4909869;29;20474;-69
2022/07/29 12:50:17;;;;;;;6.20;5.60;;;24.20;90.00;;;;;;4917475;29;20454;-69
2022/07/29 12:52:45;;;;;;;5.60;5.23;;;24.30;90.30;;;;;;4921465;29;20159;-71
2022/07/29 12:55:11;;;;;;;5.83;5.33;;;24.30;90.80;;;;;;4936057;29;20465;-68
2022/07/29 12:57:47;;;;;;;7.70;6.10;;;24.20;90.10;;;;;;4916144;29;20190;-69
2022/07/29 13:00:14;;;;;;;5.63;5.10;;;24.10;90.30;;;;;;4921538;29;20842;-69
2022/07/29 13:02:42;;;;;;;11.27;5.90;;;24.10;90.40;;;;;;4922023;29;20476;-68
2022/07/29 13:05:09;;;;;;;7.90;5.80;;;24.00;90.60;;;;;;4910880;29;20908;-68